Peotone Weather
Station Historical Data
 
Daily Summary for July 03, 2015 Units:  English    Metric   Both
« Previous Day
Next Day »
Daily Weekly Monthly Yearly Custom
  Current: High: Low: Average:
Temperature: 62.2 °F 78.7 °F 57.7 °F 68 °F
Dew Point: 57.6 °F 63.3 °F 55.1 °F 58.7 °F
Humidity: 85% 93% 52% 74%
Wind Speed: 2.3mph 10.3mph 0.0mph 2.8mph
Wind Gust: 2.3mph 13.8mph - -
WindEast - - East
Pressure: 29.92 in 29.97 in 29.89 in -
Precipitation: 0.00 in      
Historical Graphs
 
 
Tabular Data for July 03, 2015
Time Temperature Dew Point Pressure Wind Wind Speed Wind Gust Humidity Rainfall Rate (Hourly) solar Conditions
00:04 57.7 °F 55.1 °F 29.96 in Calm   6.9 mph 91% 0.00 in 0.00 W/m2
00:10 57.7 °F 55.1 °F 29.96 in NE 1.1 mph 8.1 mph 91% 0.00 in 0.00 W/m2
00:15 57.8 °F 55.2 °F 29.97 in East 3.4 mph 9.2 mph 91% 0.00 in 0.00 W/m2
00:20 57.8 °F 55.2 °F 29.97 in NNE 4.6 mph 8.1 mph 91% 0.00 in 0.00 W/m2
00:25 58.0 °F 55.4 °F 29.96 in North 8.1 mph 8.1 mph 91% 0.00 in 0.00 W/m2
00:30 58.1 °F 55.5 °F 29.96 in NNE 8.1 mph 8.1 mph 91% 0.00 in 0.00 W/m2
00:35 58.2 °F 55.6 °F 29.96 in North 8.1 mph 9.2 mph 91% 0.00 in 0.00 W/m2
00:40 58.2 °F 55.6 °F 29.96 in NE 2.3 mph 3.4 mph 91% 0.00 in 0.00 W/m2
00:45 58.2 °F 55.6 °F 29.96 in NNW 5.8 mph 8.1 mph 91% 0.00 in 0.00 W/m2
00:50 58.2 °F 55.6 °F 29.96 in Calm   5.8 mph 91% 0.00 in 0.00 W/m2
00:55 58.2 °F 55.6 °F 29.95 in Calm   6.9 mph 91% 0.00 in 0.00 W/m2
01:01 58.2 °F 55.6 °F 29.95 in NE 2.3 mph 6.9 mph 91% 0.00 in 0.00 W/m2
01:06 58.3 °F 55.7 °F 29.95 in North 2.3 mph 6.9 mph 91% 0.00 in 0.00 W/m2
01:11 58.4 °F 55.8 °F 29.95 in ENE 2.3 mph 6.9 mph 91% 0.00 in 0.00 W/m2
01:16 58.4 °F 55.8 °F 29.95 in Calm   6.9 mph 91% 0.00 in 0.00 W/m2
01:21 58.5 °F 55.9 °F 29.95 in NNE 1.1 mph 4.6 mph 91% 0.00 in 0.00 W/m2
01:26 58.5 °F 55.9 °F 29.94 in North 2.3 mph 8.1 mph 91% 0.00 in 0.00 W/m2
01:31 58.5 °F 55.9 °F 29.95 in NE 2.3 mph 8.1 mph 91% 0.00 in 0.00 W/m2
01:36 58.6 °F 56.0 °F 29.94 in Calm   8.1 mph 91% 0.00 in 0.00 W/m2
01:41 58.6 °F 56.0 °F 29.94 in Calm   8.1 mph 91% 0.00 in 0.00 W/m2
01:47 58.7 °F 56.1 °F 29.94 in NE 2.3 mph 3.4 mph 91% 0.00 in 0.00 W/m2
01:52 58.7 °F 56.1 °F 29.95 in NNE 1.1 mph 1.1 mph 91% 0.00 in 0.00 W/m2
01:57 58.8 °F 56.2 °F 29.94 in ENE 3.4 mph 3.4 mph 91% 0.00 in 0.00 W/m2
02:02 58.9 °F 56.3 °F 29.94 in NNE 2.3 mph 4.6 mph 91% 0.00 in 0.00 W/m2
02:07 58.9 °F 56.3 °F 29.94 in ENE 3.4 mph 5.8 mph 91% 0.00 in 0.00 W/m2
02:12 59.0 °F 56.1 °F 29.94 in ENE 2.3 mph 3.4 mph 90% 0.00 in 0.00 W/m2
02:17 59.1 °F 56.2 °F 29.94 in ENE 1.1 mph 2.3 mph 90% 0.00 in 0.00 W/m2
02:22 59.1 °F 56.2 °F 29.95 in ENE 1.1 mph 4.6 mph 90% 0.00 in 0.00 W/m2
02:27 59.1 °F 56.5 °F 29.95 in Calm   2.3 mph 91% 0.00 in 0.00 W/m2
02:33 59.2 °F 56.6 °F 29.94 in NE 1.1 mph 1.1 mph 91% 0.00 in 0.00 W/m2
02:38 59.3 °F 56.7 °F 29.94 in ENE 1.1 mph 4.6 mph 91% 0.00 in 0.00 W/m2
02:43 59.3 °F 56.7 °F 29.94 in Calm   2.3 mph 91% 0.00 in 0.00 W/m2
02:48 59.3 °F 56.7 °F 29.94 in ENE 5.8 mph 9.2 mph 91% 0.00 in 0.00 W/m2
02:53 59.4 °F 56.8 °F 29.94 in NE 2.3 mph 6.9 mph 91% 0.00 in 0.00 W/m2
02:58 59.4 °F 56.8 °F 29.94 in ENE 1.1 mph 5.8 mph 91% 0.00 in 0.00 W/m2
03:03 59.3 °F 56.7 °F 29.94 in ENE 3.4 mph 4.6 mph 91% 0.00 in 0.00 W/m2
03:08 59.3 °F 56.7 °F 29.94 in Calm   4.6 mph 91% 0.00 in 0.00 W/m2
03:14 59.2 °F 56.6 °F 29.94 in NE 1.1 mph 4.6 mph 91% 0.00 in 0.00 W/m2
03:19 59.1 °F 56.8 °F 29.94 in Calm   3.4 mph 92% 0.00 in 0.00 W/m2
03:24 59.0 °F 56.7 °F 29.94 in Calm   2.3 mph 92% 0.00 in 0.00 W/m2
03:29 58.9 °F 56.6 °F 29.94 in Calm   2.3 mph 92% 0.00 in 0.00 W/m2
03:34 58.9 °F 56.6 °F 29.93 in Calm   3.4 mph 92% 0.00 in 0.00 W/m2
03:39 58.8 °F 56.5 °F 29.93 in Calm   4.6 mph 92% 0.00 in 0.00 W/m2
03:44 58.9 °F 56.9 °F 29.93 in ENE 1.1 mph 4.6 mph 93% 0.00 in 0.00 W/m2
03:49 58.9 °F 56.9 °F 29.93 in Calm   4.6 mph 93% 0.00 in 0.00 W/m2
03:54 58.9 °F 56.9 °F 29.93 in Calm   4.6 mph 93% 0.00 in 0.00 W/m2
04:00 58.8 °F 56.8 °F 29.93 in Calm   2.3 mph 93% 0.00 in 0.00 W/m2
04:05 58.8 °F 56.8 °F 29.93 in Calm   3.4 mph 93% 0.00 in 0.00 W/m2
04:10 58.8 °F 56.8 °F 29.93 in ENE 1.1 mph 4.6 mph 93% 0.00 in 0.00 W/m2
04:15 58.8 °F 56.8 °F 29.92 in Calm   8.1 mph 93% 0.00 in 0.00 W/m2
04:20 58.8 °F 56.8 °F 29.92 in ENE 2.3 mph 5.8 mph 93% 0.00 in 0.00 W/m2
04:25 58.9 °F 56.9 °F 29.92 in NE 2.3 mph 5.8 mph 93% 0.00 in 0.00 W/m2
04:30 59.0 °F 57.0 °F 29.92 in NE 1.1 mph 6.9 mph 93% 0.00 in 0.00 W/m2
04:35 59.0 °F 57.0 °F 29.92 in NE 1.1 mph 4.6 mph 93% 0.00 in 0.00 W/m2
04:40 59.1 °F 57.1 °F 29.92 in NE 4.6 mph 4.6 mph 93% 0.00 in 0.00 W/m2
04:45 59.1 °F 57.1 °F 29.92 in NE 1.1 mph 4.6 mph 93% 0.00 in 0.00 W/m2
04:50 59.1 °F 57.1 °F 29.92 in NE 3.4 mph 3.4 mph 93% 0.00 in 0.00 W/m2
04:55 59.2 °F 57.2 °F 29.92 in ENE 1.1 mph 3.4 mph 93% 0.00 in 0.00 W/m2
05:00 59.2 °F 57.2 °F 29.92 in ENE 2.3 mph 4.6 mph 93% 0.00 in 0.00 W/m2
05:05 59.2 °F 57.2 °F 29.92 in Calm   5.8 mph 93% 0.00 in 0.00 W/m2
05:10 59.2 °F 57.2 °F 29.92 in ENE 2.3 mph 4.6 mph 93% 0.00 in 0.00 W/m2
05:15 59.2 °F 57.2 °F 29.92 in ENE 1.1 mph 4.6 mph 93% 0.00 in 0.00 W/m2
05:21 59.3 °F 57.0 °F 29.92 in ENE 3.4 mph 8.1 mph 92% 0.00 in 0.00 W/m2
05:26 59.3 °F 57.0 °F 29.92 in Calm   5.8 mph 92% 0.00 in 0.00 W/m2
05:31 59.3 °F 57.0 °F 29.92 in ENE 3.4 mph 4.6 mph 92% 0.00 in 0.00 W/m2
05:36 59.3 °F 57.0 °F 29.93 in ENE 3.4 mph 4.6 mph 92% 0.00 in 5.00 W/m2
05:41 59.4 °F 57.1 °F 29.93 in ENE 2.3 mph 4.6 mph 92% 0.00 in 9.00 W/m2
05:46 59.4 °F 57.1 °F 29.93 in ENE 2.3 mph 5.8 mph 92% 0.00 in 12.00 W/m2
05:51 59.5 °F 57.2 °F 29.93 in ENE 1.1 mph 5.8 mph 92% 0.00 in 18.00 W/m2
05:56 59.6 °F 57.3 °F 29.94 in ENE 1.1 mph 8.1 mph 92% 0.00 in 25.00 W/m2
06:01 59.7 °F 57.4 °F 29.94 in ENE 1.1 mph 3.4 mph 92% 0.00 in 33.00 W/m2
06:07 59.8 °F 57.2 °F 29.94 in ENE 1.1 mph 2.3 mph 91% 0.00 in 42.00 W/m2
06:12 59.9 °F 57.3 °F 29.94 in ENE 5.8 mph 5.8 mph 91% 0.00 in 51.00 W/m2
06:17 60.0 °F 57.4 °F 29.94 in ENE 4.6 mph 5.8 mph 91% 0.00 in 62.00 W/m2
06:22 60.1 °F 57.5 °F 29.94 in ENE 1.1 mph 2.3 mph 91% 0.00 in 72.00 W/m2
06:27 60.3 °F 57.7 °F 29.94 in Calm   3.4 mph 91% 0.00 in 83.00 W/m2
06:32 60.5 °F 57.6 °F 29.95 in Calm   2.3 mph 90% 0.00 in 95.00 W/m2
06:37 60.8 °F 57.8 °F 29.94 in Calm   3.4 mph 90% 0.00 in 98.00 W/m2
06:42 61.0 °F 57.7 °F 29.95 in Calm   3.4 mph 89% 0.00 in 107.00 W/m2
06:48 61.3 °F 58.0 °F 29.95 in East 2.3 mph 2.3 mph 89% 0.00 in 139.00 W/m2
06:53 61.7 °F 58.4 °F 29.95 in East 2.3 mph 5.8 mph 89% 0.00 in 149.00 W/m2
06:58 61.9 °F 58.3 °F 29.95 in East 1.1 mph 3.4 mph 88% 0.00 in 139.00 W/m2
07:03 62.2 °F 58.6 °F 29.95 in East 3.4 mph 6.9 mph 88% 0.00 in 123.00 W/m2
07:08 62.2 °F 58.3 °F 29.95 in East 2.3 mph 5.8 mph 87% 0.00 in 118.00 W/m2
07:13 62.2 °F 58.0 °F 29.95 in ESE 3.4 mph 5.8 mph 86% 0.00 in 120.00 W/m2
07:18 62.2 °F 58.0 °F 29.95 in East 3.4 mph 6.9 mph 86% 0.00 in 125.00 W/m2
07:23 62.3 °F 58.1 °F 29.95 in East 6.9 mph 9.2 mph 86% 0.00 in 120.00 W/m2
07:28 62.4 °F 58.2 °F 29.95 in East 3.4 mph 6.9 mph 86% 0.00 in 123.00 W/m2
07:34 62.5 °F 58.3 °F 29.95 in East 2.3 mph 8.1 mph 86% 0.00 in 125.00 W/m2
07:39 62.5 °F 58.3 °F 29.95 in East 2.3 mph 8.1 mph 86% 0.00 in 132.00 W/m2
07:44 62.7 °F 58.5 °F 29.95 in East 2.3 mph 10.3 mph 86% 0.00 in 144.00 W/m2
07:49 62.9 °F 58.3 °F 29.96 in ESE 2.3 mph 3.4 mph 85% 0.00 in 206.00 W/m2
07:54 63.4 °F 58.5 °F 29.96 in East 2.3 mph 5.8 mph 84% 0.00 in 262.00 W/m2
07:59 64.0 °F 58.7 °F 29.96 in ESE 2.3 mph 9.2 mph 83% 0.00 in 243.00 W/m2
08:04 64.5 °F 59.2 °F 29.96 in East 5.8 mph 6.9 mph 83% 0.00 in 364.00 W/m2
08:09 65.4 °F 59.8 °F 29.96 in ESE 8.1 mph 9.2 mph 82% 0.00 in 401.00 W/m2
08:15 65.8 °F 59.1 °F 29.95 in ESE 5.8 mph 10.3 mph 79% 0.00 in 429.00 W/m2
08:20 66.6 °F 59.5 °F 29.96 in ESE 5.8 mph 8.1 mph 78% 0.00 in 420.00 W/m2
08:25 67.0 °F 58.8 °F 29.96 in East 2.3 mph 5.8 mph 75% 0.00 in 462.00 W/m2
08:30 67.4 °F 59.6 °F 29.96 in ESE 4.6 mph 9.2 mph 76% 0.00 in 443.00 W/m2
08:35 67.2 °F 58.3 °F 29.96 in ESE 3.4 mph 8.1 mph 73% 0.00 in 504.00 W/m2
08:40 67.7 °F 58.7 °F 29.96 in East 6.9 mph 9.2 mph 73% 0.00 in 520.00 W/m2
08:45 68.1 °F 58.7 °F 29.95 in ENE 4.6 mph 9.2 mph 72% 0.00 in 541.00 W/m2
08:50 68.3 °F 58.9 °F 29.95 in ESE 2.3 mph 9.2 mph 72% 0.00 in 563.00 W/m2
08:56 68.7 °F 58.5 °F 29.95 in East 2.3 mph 10.3 mph 70% 0.00 in 584.00 W/m2
09:01 69.2 °F 59.4 °F 29.95 in East 8.1 mph 13.8 mph 71% 0.00 in 606.00 W/m2
09:06 69.7 °F 58.7 °F 29.95 in ESE 8.1 mph 10.3 mph 68% 0.00 in 577.00 W/m2
09:11 70.0 °F 59.4 °F 29.95 in ESE 10.3 mph 12.6 mph 69% 0.00 in 476.00 W/m2
09:16 70.1 °F 59.1 °F 29.95 in NE 1.1 mph 9.2 mph 68% 0.00 in 795.00 W/m2
09:21 70.6 °F 59.5 °F 29.95 in ENE 3.4 mph 9.2 mph 68% 0.00 in 496.00 W/m2
09:26 70.7 °F 59.6 °F 29.95 in ESE 3.4 mph 10.3 mph 68% 0.00 in 571.00 W/m2
09:31 70.9 °F 59.0 °F 29.95 in ESE 1.1 mph 8.1 mph 66% 0.00 in 693.00 W/m2
09:36 70.4 °F 58.5 °F 29.95 in ENE 1.1 mph 10.3 mph 66% 0.00 in 376.00 W/m2
09:41 70.3 °F 59.2 °F 29.95 in East 3.4 mph 8.1 mph 68% 0.00 in 403.00 W/m2
09:46 70.6 °F 60.3 °F 29.95 in ENE 3.4 mph 5.8 mph 70% 0.00 in 397.00 W/m2
09:51 70.6 °F 59.1 °F 29.95 in East 3.4 mph 6.9 mph 67% 0.00 in 422.00 W/m2
09:57 71.2 °F 58.8 °F 29.95 in NE 2.3 mph 5.8 mph 65% 0.00 in 473.00 W/m2
10:01 71.5 °F 59.6 °F 29.95 in East 3.4 mph 6.9 mph 66% 0.00 in 448.00 W/m2
10:07 71.2 °F 58.4 °F 29.95 in East 2.3 mph 8.1 mph 64% 0.00 in 420.00 W/m2
10:12 71.2 °F 59.7 °F 29.95 in East 3.4 mph 3.4 mph 67% 0.00 in 431.00 W/m2
10:17 71.5 °F 60.0 °F 29.95 in NE 6.9 mph 6.9 mph 67% 0.00 in 432.00 W/m2
10:22 71.3 °F 59.4 °F 29.95 in Calm     66% 0.00 in 415.00 W/m2
10:27 71.5 °F 59.1 °F 29.95 in East 3.4 mph 6.9 mph 65% 0.00 in 431.00 W/m2
10:32 71.4 °F 59.5 °F 29.95 in NE 5.8 mph 9.2 mph 66% 0.00 in 445.00 W/m2
10:37 71.4 °F 60.3 °F 29.95 in ENE 1.1 mph 2.3 mph 68% 0.00 in 513.00 W/m2
10:42 71.9 °F 59.5 °F 29.95 in ENE 3.4 mph 4.6 mph 65% 0.00 in 480.00 W/m2
10:47 71.9 °F 60.4 °F 29.95 in ENE 2.3 mph 8.1 mph 67% 0.00 in 478.00 W/m2
10:53 71.9 °F 60.8 °F 29.94 in NE 1.1 mph 4.6 mph 68% 0.00 in 471.00 W/m2
10:58 71.9 °F 59.9 °F 29.94 in ENE 2.3 mph 8.1 mph 66% 0.00 in 809.00 W/m2
11:03 73.3 °F 60.8 °F 29.94 in ENE 3.4 mph 3.4 mph 65% 0.00 in 863.00 W/m2
11:08 73.2 °F 59.9 °F 29.95 in NE 1.1 mph 9.2 mph 63% 0.00 in 501.00 W/m2
11:13 73.3 °F 60.4 °F 29.95 in NE 9.2 mph 9.2 mph 64% 0.00 in 819.00 W/m2
11:18 73.4 °F 59.2 °F 29.95 in NE 8.1 mph 10.3 mph 61% 0.00 in 860.00 W/m2
11:23 74.0 °F 59.2 °F 29.95 in ENE 4.6 mph 8.1 mph 60% 0.00 in 902.00 W/m2
11:28 74.3 °F 60.9 °F 29.95 in East 3.4 mph 9.2 mph 63% 0.00 in 795.00 W/m2
11:33 74.7 °F 60.4 °F 29.95 in East 3.4 mph 6.9 mph 61% 0.00 in 687.00 W/m2
11:39 74.5 °F 60.2 °F 29.95 in SE 2.3 mph 8.1 mph 61% 0.00 in 353.00 W/m2
11:44 73.8 °F 58.6 °F 29.94 in East 6.9 mph 10.3 mph 59% 0.00 in 364.00 W/m2
11:49 73.5 °F 59.2 °F 29.94 in NE 4.6 mph 8.1 mph 61% 0.00 in 788.00 W/m2
11:54 73.8 °F 60.0 °F 29.94 in NE 3.4 mph 8.1 mph 62% 0.00 in 775.00 W/m2
11:59 74.5 °F 60.2 °F 29.94 in ESE 1.1 mph 10.3 mph 61% 0.00 in 773.00 W/m2
12:08 74.8 °F 60.5 °F 29.94 in East 8.1 mph 8.1 mph 61% 0.00 in 860.00 W/m2
12:13 75.5 °F 60.2 °F 29.94 in ENE 9.2 mph 9.2 mph 59% 0.00 in 879.00 W/m2
12:18 75.1 °F 60.3 °F 29.94 in East 5.8 mph 5.8 mph 60% 0.00 in 919.00 W/m2
12:23 75.6 °F 60.8 °F 29.94 in East 5.8 mph 10.3 mph 60% 0.00 in 963.00 W/m2
12:28 76.0 °F 61.1 °F 29.94 in SE 3.4 mph 8.1 mph 60% 0.00 in 772.00 W/m2
12:33 75.9 °F 61.0 °F 29.94 in ENE 5.8 mph 5.8 mph 60% 0.00 in 918.00 W/m2
12:38 76.2 °F 61.3 °F 29.94 in NNE 1.1 mph 3.4 mph 60% 0.00 in 930.00 W/m2
12:43 77.0 °F 63.0 °F 29.94 in East 6.9 mph 8.1 mph 62% 0.00 in 972.00 W/m2
12:48 76.9 °F 61.0 °F 29.93 in ESE 5.8 mph 5.8 mph 58% 0.00 in 991.00 W/m2
12:53 77.7 °F 61.3 °F 29.93 in ESE 4.6 mph 5.8 mph 57% 0.00 in 1002.00 W/m2
12:59 77.3 °F 59.9 °F 29.94 in East 5.8 mph 6.9 mph 55% 0.00 in 1053.00 W/m2
13:04 77.8 °F 61.9 °F 29.94 in ENE 3.4 mph 5.8 mph 58% 0.00 in 1028.00 W/m2
13:09 77.3 °F 60.4 °F 29.94 in East 3.4 mph 9.2 mph 56% 0.00 in 475.00 W/m2
13:14 76.8 °F 62.3 °F 29.93 in NNE 1.1 mph 5.8 mph 61% 0.00 in 1049.00 W/m2
13:19 76.4 °F 60.5 °F 29.93 in NE 2.3 mph 6.9 mph 58% 0.00 in 986.00 W/m2
13:24 77.5 °F 61.6 °F 29.93 in ENE 3.4 mph 10.3 mph 58% 0.00 in 990.00 W/m2
13:29 77.5 °F 61.1 °F 29.93 in NNE 2.3 mph 10.3 mph 57% 0.00 in 976.00 W/m2
13:34 77.4 °F 62.0 °F 29.93 in North 2.3 mph 9.2 mph 59% 0.00 in 373.00 W/m2
13:39 77.9 °F 61.0 °F 29.93 in NE 8.1 mph 11.5 mph 56% 0.00 in 875.00 W/m2
13:50 76.8 °F 60.4 °F 29.93 in NNW 4.6 mph 6.9 mph 57% 0.00 in 928.00 W/m2
13:55 77.4 °F 62.4 °F 29.93 in Calm   10.3 mph 60% 0.00 in 893.00 W/m2
14:00 77.2 °F 62.2 °F 29.92 in NE 5.8 mph 9.2 mph 60% 0.00 in 766.00 W/m2
14:05 77.8 °F 63.3 °F 29.92 in SE 2.3 mph 9.2 mph 61% 0.00 in 826.00 W/m2
14:10 77.9 °F 62.9 °F 29.92 in Calm   4.6 mph 60% 0.00 in 840.00 W/m2
14:15 77.8 °F 60.9 °F 29.92 in ESE 2.3 mph 4.6 mph 56% 0.00 in 786.00 W/m2
14:20 77.4 °F 59.5 °F 29.92 in North 1.1 mph 8.1 mph 54% 0.00 in 817.00 W/m2
14:25 77.7 °F 60.8 °F 29.92 in East 5.8 mph 10.3 mph 56% 0.00 in 800.00 W/m2
14:31 77.4 °F 60.5 °F 29.92 in East 2.3 mph 6.9 mph 56% 0.00 in 798.00 W/m2
14:36 77.2 °F 60.8 °F 29.91 in Calm   8.1 mph 57% 0.00 in 689.00 W/m2
14:41 77.3 °F 60.9 °F 29.92 in Calm   2.3 mph 57% 0.00 in 671.00 W/m2
14:46 78.0 °F 61.5 °F 29.91 in ENE 2.3 mph 8.1 mph 57% 0.00 in 772.00 W/m2
14:51 78.0 °F 60.5 °F 29.92 in ENE 1.1 mph 6.9 mph 55% 0.00 in 838.00 W/m2
14:56 78.2 °F 61.2 °F 29.91 in NE 4.6 mph 5.8 mph 56% 0.00 in 821.00 W/m2
15:01 78.3 °F 61.3 °F 29.91 in ENE 1.1 mph 9.2 mph 56% 0.00 in 821.00 W/m2
15:06 78.4 °F 60.9 °F 29.91 in ENE 2.3 mph 3.4 mph 55% 0.00 in 817.00 W/m2
15:11 78.7 °F 61.2 °F 29.91 in NE 3.4 mph 6.9 mph 55% 0.00 in 802.00 W/m2
15:16 78.1 °F 59.6 °F 29.91 in NE 4.6 mph 6.9 mph 53% 0.00 in 652.00 W/m2
15:21 77.0 °F 58.0 °F 29.91 in North 4.6 mph 8.1 mph 52% 0.00 in 431.00 W/m2
15:27 76.3 °F 57.9 °F 29.91 in Calm   1.1 mph 53% 0.00 in 359.00 W/m2
15:32 76.4 °F 60.5 °F 29.91 in East 5.8 mph 5.8 mph 58% 0.00 in 659.00 W/m2
15:37 77.0 °F 60.1 °F 29.91 in East 2.3 mph 2.3 mph 56% 0.00 in 728.00 W/m2
15:42 78.2 °F 59.7 °F 29.91 in Calm   3.4 mph 53% 0.00 in 719.00 W/m2
15:47 78.1 °F 59.6 °F 29.91 in Calm   3.4 mph 53% 0.00 in 682.00 W/m2
15:52 78.0 °F 60.5 °F 29.91 in ENE 2.3 mph 3.4 mph 55% 0.00 in 675.00 W/m2
15:57 78.1 °F 60.6 °F 29.91 in NE 1.1 mph 2.3 mph 55% 0.00 in 680.00 W/m2
16:02 78.0 °F 61.0 °F 29.91 in NE 4.6 mph 4.6 mph 56% 0.00 in 664.00 W/m2
16:07 77.8 °F 60.4 °F 29.91 in ENE 2.3 mph 4.6 mph 55% 0.00 in 656.00 W/m2
16:12 78.3 °F 61.8 °F 29.90 in NE 4.6 mph 4.6 mph 57% 0.00 in 633.00 W/m2
16:18 77.8 °F 60.9 °F 29.90 in SE 3.4 mph 3.4 mph 56% 0.00 in 619.00 W/m2
16:23 77.7 °F 59.8 °F 29.90 in ENE 2.3 mph 4.6 mph 54% 0.00 in 603.00 W/m2
16:28 77.9 °F 61.5 °F 29.90 in NW 2.3 mph 5.8 mph 57% 0.00 in 587.00 W/m2
16:33 78.0 °F 59.5 °F 29.90 in NNW 2.3 mph 2.3 mph 53% 0.00 in 563.00 W/m2
16:38 78.4 °F 60.9 °F 29.89 in Calm   1.1 mph 55% 0.00 in 557.00 W/m2
16:43 78.4 °F 59.9 °F 29.89 in SE 1.1 mph 5.8 mph 53% 0.00 in 541.00 W/m2
16:48 77.8 °F 59.3 °F 29.89 in NNE 2.3 mph 8.1 mph 53% 0.00 in 522.00 W/m2
16:53 78.2 °F 63.2 °F 29.89 in NW 1.1 mph 5.8 mph 60% 0.00 in 508.00 W/m2
17:03 77.6 °F 59.7 °F 29.89 in NE 3.4 mph 5.8 mph 54% 0.00 in 480.00 W/m2
17:09 77.6 °F 59.7 °F 29.89 in NE 2.3 mph 4.6 mph 54% 0.00 in 462.00 W/m2
17:14 77.5 °F 60.1 °F 29.89 in ENE 2.3 mph 5.8 mph 55% 0.00 in 452.00 W/m2
17:19 77.3 °F 60.4 °F 29.89 in ENE 4.6 mph 8.1 mph 56% 0.00 in 436.00 W/m2
17:24 77.3 °F 60.4 °F 29.89 in East 5.8 mph 6.9 mph 56% 0.00 in 417.00 W/m2
17:29 77.1 °F 59.7 °F 29.89 in NE 3.4 mph 6.9 mph 55% 0.00 in 401.00 W/m2
17:34 76.7 °F 60.3 °F 29.89 in ENE 3.4 mph 8.1 mph 57% 0.00 in 390.00 W/m2
17:39 76.5 °F 59.2 °F 29.89 in ENE 4.6 mph 10.3 mph 55% 0.00 in 378.00 W/m2
17:44 76.6 °F 59.8 °F 29.89 in ENE 3.4 mph 5.8 mph 56% 0.00 in 364.00 W/m2
17:49 76.8 °F 60.9 °F 29.89 in ENE 4.6 mph 4.6 mph 58% 0.00 in 346.00 W/m2
18:00 76.4 °F 60.5 °F 29.89 in ENE 3.4 mph 8.1 mph 58% 0.00 in 318.00 W/m2
18:05 76.2 °F 59.9 °F 29.89 in ENE 1.1 mph 4.6 mph 57% 0.00 in 304.00 W/m2
18:10 76.2 °F 59.9 °F 29.89 in ENE 1.1 mph 4.6 mph 57% 0.00 in 292.00 W/m2
18:15 75.9 °F 59.1 °F 29.89 in ENE 2.3 mph 5.8 mph 56% 0.00 in 278.00 W/m2
18:20 75.6 °F 58.8 °F 29.89 in ENE 3.4 mph 8.1 mph 56% 0.00 in 262.00 W/m2
18:25 75.3 °F 58.0 °F 29.89 in ENE 2.3 mph 5.8 mph 55% 0.00 in 230.00 W/m2
18:30 75.1 °F 58.8 °F 29.89 in ENE 3.4 mph 4.6 mph 57% 0.00 in 221.00 W/m2
18:35 74.7 °F 59.0 °F 29.89 in ENE 8.1 mph 10.3 mph 58% 0.00 in 197.00 W/m2
18:41 74.2 °F 59.9 °F 29.89 in Calm   8.1 mph 61% 0.00 in 172.00 W/m2
18:46 73.8 °F 59.1 °F 29.89 in ENE 4.6 mph 11.5 mph 60% 0.00 in 156.00 W/m2
18:51 73.4 °F 59.2 °F 29.89 in ENE 3.4 mph 9.2 mph 61% 0.00 in 90.00 W/m2
18:56 73.0 °F 59.2 °F 29.89 in ENE 9.2 mph 9.2 mph 62% 0.00 in 83.00 W/m2
19:01 72.6 °F 59.3 °F 29.89 in East 1.1 mph 9.2 mph 63% 0.00 in 74.00 W/m2
19:06 72.3 °F 59.0 °F 29.89 in ENE 3.4 mph 9.2 mph 63% 0.00 in 67.00 W/m2
19:11 72.1 °F 59.3 °F 29.89 in ENE 8.1 mph 8.1 mph 64% 0.00 in 62.00 W/m2
19:16 71.7 °F 59.8 °F 29.89 in ENE 4.6 mph 8.1 mph 66% 0.00 in 54.00 W/m2
19:21 71.3 °F 59.4 °F 29.89 in NE 9.2 mph 9.2 mph 66% 0.00 in 51.00 W/m2
19:26 71.1 °F 59.6 °F 29.89 in ENE 1.1 mph 9.2 mph 67% 0.00 in 47.00 W/m2
19:32 70.6 °F 59.5 °F 29.89 in ENE 1.1 mph 6.9 mph 68% 0.00 in 42.00 W/m2
19:37 70.4 °F 59.3 °F 29.89 in ENE 3.4 mph 6.9 mph 68% 0.00 in 37.00 W/m2
19:42 70.2 °F 59.6 °F 29.89 in Calm   1.1 mph 69% 0.00 in 33.00 W/m2
19:47 69.7 °F 59.5 °F 29.89 in Calm   1.1 mph 70% 0.00 in 28.00 W/m2
19:52 69.3 °F 59.5 °F 29.89 in Calm   3.4 mph 71% 0.00 in 25.00 W/m2
19:57 69.0 °F 59.6 °F 29.89 in ENE 2.3 mph 2.3 mph 72% 0.00 in 21.00 W/m2
20:02 68.8 °F 59.4 °F 29.89 in ENE 3.4 mph 3.4 mph 72% 0.00 in 16.00 W/m2
20:07 68.5 °F 59.1 °F 29.89 in ENE 5.8 mph 5.8 mph 72% 0.00 in 14.00 W/m2
20:12 68.3 °F 59.3 °F 29.89 in ENE 3.4 mph 3.4 mph 73% 0.00 in 11.00 W/m2
20:17 67.9 °F 59.3 °F 29.89 in ENE 3.4 mph 3.4 mph 74% 0.00 in 7.00 W/m2
20:23 67.5 °F 59.3 °F 29.89 in ENE 4.6 mph 4.6 mph 75% 0.00 in 5.00 W/m2
20:28 67.2 °F 59.0 °F 29.89 in ENE 3.4 mph 3.4 mph 75% 0.00 in 0.00 W/m2
20:33 66.9 °F 59.1 °F 29.89 in Calm   2.3 mph 76% 0.00 in 0.00 W/m2
20:38 66.6 °F 58.8 °F 29.89 in ENE 2.3 mph 2.3 mph 76% 0.00 in 0.00 W/m2
20:43 66.0 °F 58.6 °F 29.90 in ENE 2.3 mph 3.4 mph 77% 0.00 in 0.00 W/m2
20:48 65.8 °F 58.8 °F 29.90 in ENE 2.3 mph 4.6 mph 78% 0.00 in 0.00 W/m2
20:53 65.7 °F 58.7 °F 29.90 in Calm   1.1 mph 78% 0.00 in 0.00 W/m2
21:03 64.9 °F 58.6 °F 29.90 in ENE 2.3 mph 2.3 mph 80% 0.00 in 0.00 W/m2
21:14 64.9 °F 58.6 °F 29.91 in Calm   3.4 mph 80% 0.00 in 0.00 W/m2
21:24 64.7 °F 58.7 °F 29.91 in East 3.4 mph 3.4 mph 81% 0.00 in 0.00 W/m2
21:29 64.6 °F 58.7 °F 29.91 in Calm   5.8 mph 81% 0.00 in 0.00 W/m2
21:34 64.5 °F 58.2 °F 29.92 in Calm   5.8 mph 80% 0.00 in 0.00 W/m2
21:39 64.3 °F 58.3 °F 29.92 in East 2.3 mph 3.4 mph 81% 0.00 in 0.00 W/m2
21:44 63.9 °F 58.3 °F 29.92 in East 1.1 mph 5.8 mph 82% 0.00 in 0.00 W/m2
21:50 63.8 °F 58.2 °F 29.92 in Calm   3.4 mph 82% 0.00 in 0.00 W/m2
21:55 63.3 °F 58.1 °F 29.92 in Calm   2.3 mph 83% 0.00 in 0.00 W/m2
22:00 62.9 °F 58.0 °F 29.92 in East 3.4 mph 3.4 mph 84% 0.00 in 0.00 W/m2
22:05 62.5 °F 57.6 °F 29.92 in Calm   2.3 mph 84% 0.00 in 0.00 W/m2
22:10 62.2 °F 57.6 °F 29.92 in Calm   5.8 mph 85% 0.00 in 0.00 W/m2
22:15 62.2 °F 57.6 °F 29.92 in East 2.3 mph 2.3 mph 85% 0.00 in 0.00 W/m2
Peotone Weather Data
Compliments of Weather Underground